sensor_id;sensor_type;location;lat;lon;timestamp;pressure;altitude;pressure_sealevel;temperature;humidity
57628;BME280;43451;49.060;10.616;2022-09-12T00:01:18;96952.28;;;10.64;100.00
57628;BME280;43451;49.060;10.616;2022-09-12T00:03:44;96960.44;;;10.71;100.00
57628;BME280;43451;49.060;10.616;2022-09-12T00:06:11;96962.03;;;10.79;100.00
57628;BME280;43451;49.060;10.616;2022-09-12T00:08:39;96961.63;;;10.70;100.00
57628;BME280;43451;49.060;10.616;2022-09-12T00:11:08;96953.81;;;10.54;100.00
57628;BME280;43451;49.060;10.616;2022-09-12T00:13:34;96949.56;;;10.53;100.00
57628;BME280;43451;49.060;10.616;2022-09-12T00:16:00;96945.28;;;10.49;100.00
57628;BME280;43451;49.060;10.616;2022-09-12T00:18:25;96942.84;;;10.26;100.00
57628;BME280;43451;49.060;10.616;2022-09-12T00:20:51;96946.31;;;10.15;100.00
57628;BME280;43451;49.060;10.616;2022-09-12T00:23:16;96947.09;;;10.12;100.00
57628;BME280;43451;49.060;10.616;2022-09-12T00:25:43;96948.63;;;10.06;100.00
57628;BME280;43451;49.060;10.616;2022-09-12T00:28:10;96952.13;;;10.10;100.00
57628;BME280;43451;49.060;10.616;2022-09-12T00:30:43;96946.25;;;9.97;100.00
57628;BME280;43451;49.060;10.616;2022-09-12T00:33:10;96948.97;;;10.01;100.00
57628;BME280;43451;49.060;10.616;2022-09-12T00:35:43;96943.94;;;10.03;100.00
57628;BME280;43451;49.060;10.616;2022-09-12T00:38:09;96948.59;;;10.03;100.00
57628;BME280;43451;49.060;10.616;2022-09-12T00:40:35;96952.09;;;10.03;100.00
57628;BME280;43451;49.060;10.616;2022-09-12T00:43:00;96951.69;;;9.97;100.00
57628;BME280;43451;49.060;10.616;2022-09-12T00:45:27;96959.41;;;9.92;100.00
57628;BME280;43451;49.060;10.616;2022-09-12T00:47:54;96948.94;;;9.87;100.00
57628;BME280;43451;49.060;10.616;2022-09-12T00:50:21;96941.16;;;9.89;100.00
57628;BME280;43451;49.060;10.616;2022-09-12T00:52:50;96942.34;;;9.91;100.00
57628;BME280;43451;49.060;10.616;2022-09-12T00:55:23;96931.13;;;9.93;100.00
57628;BME280;43451;49.060;10.616;2022-09-12T00:57:54;96933.84;;;9.93;100.00
57628;BME280;43451;49.060;10.616;2022-09-12T01:00:22;96934.59;;;9.93;100.00
57628;BME280;43451;49.060;10.616;2022-09-12T01:02:54;96933.84;;;9.93;100.00
57628;BME280;43451;49.060;10.616;2022-09-12T01:05:22;96926.03;;;9.84;100.00
57628;BME280;43451;49.060;10.616;2022-09-12T01:07:49;96924.84;;;9.82;100.00
57628;BME280;43451;49.060;10.616;2022-09-12T01:10:16;96920.59;;;9.84;100.00
57628;BME280;43451;49.060;10.616;2022-09-12T01:12:42;96927.59;;;9.89;100.00
57628;BME280;43451;49.060;10.616;2022-09-12T01:15:08;96920.25;;;9.93;100.00
57628;BME280;43451;49.060;10.616;2022-09-12T01:17:51;96915.22;;;9.95;100.00
57628;BME280;43451;49.060;10.616;2022-09-12T01:20:44;96922.59;;;9.94;100.00
57628;BME280;43451;49.060;10.616;2022-09-12T01:29:17;96902.03;;;9.93;100.00
57628;BME280;43451;49.060;10.616;2022-09-12T01:35:05;96893.91;;;9.93;100.00
57628;BME280;43451;49.060;10.616;2022-09-12T01:37:51;96900.50;;;9.96;100.00
57628;BME280;43451;49.060;10.616;2022-09-12T01:40:30;96900.09;;;9.97;100.00
57628;BME280;43451;49.060;10.616;2022-09-12T01:43:23;96909.03;;;9.98;100.00
57628;BME280;43451;49.060;10.616;2022-09-12T01:45:58;96906.69;;;9.93;100.00
57628;BME280;43451;49.060;10.616;2022-09-12T01:53:43;96888.81;;;9.85;100.00
57628;BME280;43451;49.060;10.616;2022-09-12T01:56:23;96897.72;;;9.85;100.00
57628;BME280;43451;49.060;10.616;2022-09-12T01:58:55;96891.13;;;9.83;100.00
57628;BME280;43451;49.060;10.616;2022-09-12T02:01:26;96886.88;;;9.89;100.00
57628;BME280;43451;49.060;10.616;2022-09-12T02:04:03;96895.78;;;9.86;100.00
57628;BME280;43451;49.060;10.616;2022-09-12T02:09:34;96882.59;;;9.81;100.00
57628;BME280;43451;49.060;10.616;2022-09-12T02:12:03;96884.16;;;9.82;100.00
57628;BME280;43451;49.060;10.616;2022-09-12T02:14:33;96883.38;;;9.81;100.00
57628;BME280;43451;49.060;10.616;2022-09-12T02:17:12;96885.66;;;9.68;100.00
57628;BME280;43451;49.060;10.616;2022-09-12T02:19:43;96878.63;;;9.60;100.00
57628;BME280;43451;49.060;10.616;2022-09-12T02:22:17;96877.88;;;9.63;100.00
57628;BME280;43451;49.060;10.616;2022-09-12T02:24:47;96878.28;;;9.62;100.00
57628;BME280;43451;49.060;10.616;2022-09-12T02:27:20;96876.69;;;9.57;100.00
57628;BME280;43451;49.060;10.616;2022-09-12T02:29:48;96881.28;;;9.46;100.00
57628;BME280;43451;49.060;10.616;2022-09-12T02:34:58;96875.41;;;9.33;100.00
57628;BME280;43451;49.060;10.616;2022-09-12T02:40:02;96870.66;;;9.19;100.00
57628;BME280;43451;49.060;10.616;2022-09-12T02:42:28;96864.50;;;9.22;100.00
57628;BME280;43451;49.060;10.616;2022-09-12T02:44:55;96866.06;;;9.23;100.00
57628;BME280;43451;49.060;10.616;2022-09-12T02:47:35;96873.75;;;9.14;100.00
57628;BME280;43451;49.060;10.616;2022-09-12T02:50:02;96879.53;;;9.09;100.00
57628;BME280;43451;49.060;10.616;2022-09-12T02:52:30;96868.34;;;9.14;100.00
57628;BME280;43451;49.060;10.616;2022-09-12T02:54:57;96870.66;;;9.16;100.00
57628;BME280;43451;49.060;10.616;2022-09-12T02:57:23;96871.44;;;9.16;100.00
57628;BME280;43451;49.060;10.616;2022-09-12T02:59:52;96869.13;;;9.18;100.00
57628;BME280;43451;49.060;10.616;2022-09-12T03:02:35;96866.75;;;9.13;100.00
57628;BME280;43451;49.060;10.616;2022-09-12T03:08:06;96867.19;;;9.19;100.00
57628;BME280;43451;49.060;10.616;2022-09-12T03:16:23;96874.88;;;9.10;100.00
57628;BME280;43451;49.060;10.616;2022-09-12T03:21:57;96872.19;;;9.13;100.00
57628;BME280;43451;49.060;10.616;2022-09-12T03:24:30;96867.16;;;9.15;100.00
57628;BME280;43451;49.060;10.616;2022-09-12T03:29:26;96872.94;;;9.10;100.00
57628;BME280;43451;49.060;10.616;2022-09-12T03:31:54;96868.28;;;9.07;100.00
57628;BME280;43451;49.060;10.616;2022-09-12T03:34:22;96872.94;;;9.10;100.00
57628;BME280;43451;49.060;10.616;2022-09-12T03:36:48;96864.38;;;9.01;100.00
57628;BME280;43451;49.060;10.616;2022-09-12T03:39:14;96856.25;;;9.01;100.00
57628;BME280;43451;49.060;10.616;2022-09-12T03:41:40;96864.81;;;9.10;100.00
57628;BME280;43451;49.060;10.616;2022-09-12T03:44:05;96862.88;;;9.07;100.00
57628;BME280;43451;49.060;10.616;2022-09-12T03:46:31;96870.59;;;9.05;100.00
57628;BME280;43451;49.060;10.616;2022-09-12T03:48:56;96863.63;;;9.04;100.00
57628;BME280;43451;49.060;10.616;2022-09-12T03:51:22;96861.28;;;9.02;100.00
57628;BME280;43451;49.060;10.616;2022-09-12T03:53:48;96865.94;;;9.02;100.00
57628;BME280;43451;49.060;10.616;2022-09-12T03:56:13;96865.94;;;9.02;100.00
57628;BME280;43451;49.060;10.616;2022-09-12T03:58:39;96864.75;;;9.03;100.00
57628;BME280;43451;49.060;10.616;2022-09-12T04:01:08;96866.34;;;9.04;100.00
57628;BME280;43451;49.060;10.616;2022-09-12T04:03:37;96862.06;;;9.03;100.00
57628;BME280;43451;49.060;10.616;2022-09-12T04:06:03;96865.94;;;9.02;100.00
57628;BME280;43451;49.060;10.616;2022-09-12T04:08:29;96862.47;;;9.09;100.00
57628;BME280;43451;49.060;10.616;2022-09-12T04:11:01;96863.25;;;9.05;100.00
57628;BME280;43451;49.060;10.616;2022-09-12T04:13:27;96855.88;;;9.06;100.00
57628;BME280;43451;49.060;10.616;2022-09-12T04:15:57;96855.91;;;9.10;100.00
57628;BME280;43451;49.060;10.616;2022-09-12T04:18:23;96856.63;;;9.03;100.00
57628;BME280;43451;49.060;10.616;2022-09-12T04:20:48;96854.66;;;8.96;100.00
57628;BME280;43451;49.060;10.616;2022-09-12T04:23:14;96857.34;;;8.93;100.00
57628;BME280;43451;49.060;10.616;2022-09-12T04:25:39;96864.31;;;8.94;100.00
57628;BME280;43451;49.060;10.616;2022-09-12T04:28:05;96863.94;;;8.92;100.00
57628;BME280;43451;49.060;10.616;2022-09-12T04:30:32;96856.56;;;8.89;100.00
57628;BME280;43451;49.060;10.616;2022-09-12T04:32:58;96861.94;;;8.85;100.00
57628;BME280;43451;49.060;10.616;2022-09-12T04:35:24;96857.31;;;8.86;100.00
57628;BME280;43451;49.060;10.616;2022-09-12T04:37:50;96858.44;;;8.84;100.00
57628;BME280;43451;49.060;10.616;2022-09-12T04:40:15;96852.97;;;8.74;100.00
57628;BME280;43451;49.060;10.616;2022-09-12T04:42:41;96863.06;;;8.80;100.00
57628;BME280;43451;49.060;10.616;2022-09-12T04:45:06;96857.31;;;8.86;100.00
57628;BME280;43451;49.060;10.616;2022-09-12T04:47:32;96855.41;;;8.90;100.00
57628;BME280;43451;49.060;10.616;2022-09-12T04:49:58;96853.03;;;8.84;100.00
57628;BME280;43451;49.060;10.616;2022-09-12T04:52:23;96854.19;;;8.83;100.00
57628;BME280;43451;49.060;10.616;2022-09-12T04:54:49;96865.00;;;8.80;100.00
57628;BME280;43451;49.060;10.616;2022-09-12T04:57:14;96858.41;;;8.77;100.00
57628;BME280;43451;49.060;10.616;2022-09-12T04:59:40;96856.09;;;8.79;100.00
57628;BME280;43451;49.060;10.616;2022-09-12T05:02:05;96862.28;;;8.80;100.00
57628;BME280;43451;49.060;10.616;2022-09-12T05:04:31;96864.25;;;8.83;100.00
57628;BME280;43451;49.060;10.616;2022-09-12T05:06:56;96868.16;;;8.86;100.00
57628;BME280;43451;49.060;10.616;2022-09-12T05:09:22;96868.91;;;8.86;100.00
57628;BME280;43451;49.060;10.616;2022-09-12T05:11:48;96867.41;;;8.92;100.00
57628;BME280;43451;49.060;10.616;2022-09-12T05:14:13;96872.06;;;8.92;100.00
57628;BME280;43451;49.060;10.616;2022-09-12T05:16:39;96868.22;;;8.96;100.00
57628;BME280;43451;49.060;10.616;2022-09-12T05:19:05;96874.81;;;8.99;100.00
57628;BME280;43451;49.060;10.616;2022-09-12T05:21:31;96878.69;;;8.98;100.00
57628;BME280;43451;49.060;10.616;2022-09-12T05:23:57;96875.22;;;9.01;100.00
57628;BME280;43451;49.060;10.616;2022-09-12T05:26:26;96868.28;;;9.07;100.00
57628;BME280;43451;49.060;10.616;2022-09-12T05:28:52;96869.88;;;9.12;100.00
57628;BME280;43451;49.060;10.616;2022-09-12T05:31:24;96871.47;;;9.20;100.00
57628;BME280;43451;49.060;10.616;2022-09-12T05:33:52;96867.63;;;9.24;100.00
57628;BME280;43451;49.060;10.616;2022-09-12T05:36:21;96864.94;;;9.35;100.00
57628;BME280;43451;49.060;10.616;2022-09-12T05:38:48;96873.91;;;9.43;100.00
57628;BME280;43451;49.060;10.616;2022-09-12T05:41:19;96883.25;;;9.49;100.00
57628;BME280;43451;49.060;10.616;2022-09-12T05:43:46;96883.25;;;9.49;100.00
57628;BME280;43451;49.060;10.616;2022-09-12T05:46:14;96877.44;;;9.58;100.00
57628;BME280;43451;49.060;10.616;2022-09-12T05:48:41;96884.47;;;9.62;100.00
57628;BME280;43451;49.060;10.616;2022-09-12T05:51:13;96884.06;;;9.64;100.00
57628;BME280;43451;49.060;10.616;2022-09-12T05:53:41;96881.00;;;9.65;100.00
57628;BME280;43451;49.060;10.616;2022-09-12T05:56:09;96887.19;;;9.66;100.00
57628;BME280;43451;49.060;10.616;2022-09-12T05:58:37;96883.38;;;9.74;100.00
57628;BME280;43451;49.060;10.616;2022-09-12T06:01:09;96878.31;;;9.72;100.00
57628;BME280;43451;49.060;10.616;2022-09-12T06:03:42;96882.94;;;9.68;100.00
57628;BME280;43451;49.060;10.616;2022-09-12T06:06:09;96883.31;;;9.70;100.00
57628;BME280;43451;49.060;10.616;2022-09-12T06:08:38;96884.56;;;9.84;100.00
57628;BME280;43451;49.060;10.616;2022-09-12T06:11:05;96887.69;;;9.93;100.00
57628;BME280;43451;49.060;10.616;2022-09-12T06:13:33;96893.50;;;9.91;100.00
57628;BME280;43451;49.060;10.616;2022-09-12T06:16:06;96890.38;;;9.86;100.00
57628;BME280;43451;49.060;10.616;2022-09-12T06:18:36;96892.75;;;9.98;100.00
57628;BME280;43451;49.060;10.616;2022-09-12T06:23:32;96885.03;;;10.14;100.00
57628;BME280;43451;49.060;10.616;2022-09-12T06:25:58;96886.19;;;10.13;100.00
57628;BME280;43451;49.060;10.616;2022-09-12T06:28:24;96888.13;;;10.16;100.00
57628;BME280;43451;49.060;10.616;2022-09-12T06:30:49;96879.28;;;10.30;100.00
57628;BME280;43451;49.060;10.616;2022-09-12T06:33:15;96876.56;;;10.30;100.00
57628;BME280;43451;49.060;10.616;2022-09-12T06:35:41;96879.22;;;10.19;100.00
57628;BME280;43451;49.060;10.616;2022-09-12T06:38:07;96885.78;;;10.11;100.00
57628;BME280;43451;49.060;10.616;2022-09-12T06:40:34;96880.78;;;10.20;100.00
57628;BME280;43451;49.060;10.616;2022-09-12T06:43:00;96882.72;;;10.20;100.00
57628;BME280;43451;49.060;10.616;2022-09-12T06:45:25;96880.84;;;10.35;100.00
57628;BME280;43451;49.060;10.616;2022-09-12T06:47:51;96878.13;;;10.42;100.00
57628;BME280;43451;49.060;10.616;2022-09-12T06:50:17;96878.94;;;10.53;100.00
57628;BME280;43451;49.060;10.616;2022-09-12T06:52:42;96866.50;;;10.66;100.00
57628;BME280;43451;49.060;10.616;2022-09-12T06:55:09;96880.09;;;10.81;100.00
57628;BME280;43451;49.060;10.616;2022-09-12T06:57:34;96876.97;;;10.93;100.00
57628;BME280;43451;49.060;10.616;2022-09-12T07:00:03;96875.41;;;11.03;100.00
57628;BME280;43451;49.060;10.616;2022-09-12T07:02:29;96875.41;;;11.06;100.00
57628;BME280;43451;49.060;10.616;2022-09-12T07:04:55;96873.84;;;11.16;100.00
57628;BME280;43451;49.060;10.616;2022-09-12T07:07:21;96872.69;;;11.17;100.00
57628;BME280;43451;49.060;10.616;2022-09-12T07:09:46;96877.31;;;11.31;100.00
57628;BME280;43451;49.060;10.616;2022-09-12T07:12:12;96874.56;;;11.38;100.00
57628;BME280;43451;49.060;10.616;2022-09-12T07:14:37;96871.06;;;11.48;100.00
57628;BME280;43451;49.060;10.616;2022-09-12T07:17:02;96872.56;;;11.60;100.00
57628;BME280;43451;49.060;10.616;2022-09-12T07:19:28;96872.53;;;11.71;100.00
57628;BME280;43451;49.060;10.616;2022-09-12T07:21:54;96868.22;;;11.80;100.00
57628;BME280;43451;49.060;10.616;2022-09-12T07:24:19;96871.69;;;11.92;100.00
57628;BME280;43451;49.060;10.616;2022-09-12T07:26:45;96876.28;;;12.09;100.00
57628;BME280;43451;49.060;10.616;2022-09-12T07:29:15;96885.13;;;12.24;100.00
57628;BME280;43451;49.060;10.616;2022-09-12T07:31:41;96873.78;;;12.36;100.00
57628;BME280;43451;49.060;10.616;2022-09-12T07:34:07;96875.97;;;12.59;100.00
57628;BME280;43451;49.060;10.616;2022-09-12T07:36:33;96887.19;;;12.72;100.00
57628;BME280;43451;49.060;10.616;2022-09-12T07:38:58;96869.56;;;12.80;100.00
57628;BME280;43451;49.060;10.616;2022-09-12T07:41:26;96872.53;;;12.96;100.00
57628;BME280;43451;49.060;10.616;2022-09-12T07:43:53;96865.41;;;13.10;100.00
57628;BME280;43451;49.060;10.616;2022-09-12T07:46:20;96872.13;;;13.43;100.00
57628;BME280;43451;49.060;10.616;2022-09-12T07:48:54;96872.53;;;13.45;100.00
57628;BME280;43451;49.060;10.616;2022-09-12T07:51:20;96876.22;;;13.62;100.00
57628;BME280;43451;49.060;10.616;2022-09-12T07:53:47;96875.69;;;13.74;100.00
57628;BME280;43451;49.060;10.616;2022-09-12T07:56:13;96867.75;;;13.87;100.00
57628;BME280;43451;49.060;10.616;2022-09-12T07:58:40;96870.28;;;14.01;100.00
57628;BME280;43451;49.060;10.616;2022-09-12T08:01:10;96866.22;;;14.13;100.00
57628;BME280;43451;49.060;10.616;2022-09-12T08:03:38;96877.81;;;14.21;100.00
57628;BME280;43451;49.060;10.616;2022-09-12T08:06:12;96871.03;;;14.32;100.00
57628;BME280;43451;49.060;10.616;2022-09-12T08:08:38;96875.56;;;14.43;100.00
57628;BME280;43451;49.060;10.616;2022-09-12T08:11:08;96872.72;;;14.53;100.00
57628;BME280;43451;49.060;10.616;2022-09-12T08:13:35;96862.81;;;14.63;100.00
57628;BME280;43451;49.060;10.616;2022-09-12T08:16:12;96862.63;;;14.74;100.00
57628;BME280;43451;49.060;10.616;2022-09-12T08:18:38;96869.84;;;14.88;100.00
57628;BME280;43451;49.060;10.616;2022-09-12T08:21:05;96865.13;;;15.12;100.00
57628;BME280;43451;49.060;10.616;2022-09-12T08:23:32;96868.16;;;15.17;100.00
57628;BME280;43451;49.060;10.616;2022-09-12T08:25:59;96876.16;;;15.28;100.00
57628;BME280;43451;49.060;10.616;2022-09-12T08:28:26;96869.94;;;15.71;100.00
57628;BME280;43451;49.060;10.616;2022-09-12T08:30:52;96875.88;;;15.66;100.00
57628;BME280;43451;49.060;10.616;2022-09-12T08:33:18;96873.88;;;15.90;100.00
57628;BME280;43451;49.060;10.616;2022-09-12T08:35:43;96875.97;;;16.02;100.00
57628;BME280;43451;49.060;10.616;2022-09-12T08:38:09;96884.44;;;16.08;100.00
57628;BME280;43451;49.060;10.616;2022-09-12T08:49:09;96875.03;;;16.45;100.00
57628;BME280;43451;49.060;10.616;2022-09-12T08:51:36;96874.91;;;16.68;100.00
57628;BME280;43451;49.060;10.616;2022-09-12T08:54:05;96877.78;;;16.61;100.00
57628;BME280;43451;49.060;10.616;2022-09-12T08:56:37;96866.03;;;16.61;100.00
57628;BME280;43451;49.060;10.616;2022-09-12T08:59:03;96869.72;;;16.70;99.39
57628;BME280;43451;49.060;10.616;2022-09-12T09:01:37;96870.97;;;16.86;99.05
57628;BME280;43451;49.060;10.616;2022-09-12T09:04:33;96868.19;;;17.18;95.56
57628;BME280;43451;49.060;10.616;2022-09-12T09:09:59;96867.31;;;17.38;94.46
57628;BME280;43451;49.060;10.616;2022-09-12T09:18:11;96876.66;;;17.70;90.56
57628;BME280;43451;49.060;10.616;2022-09-12T09:25:41;96875.00;;;18.01;85.76
57628;BME280;43451;49.060;10.616;2022-09-12T09:28:35;96863.81;;;18.08;87.33
57628;BME280;43451;49.060;10.616;2022-09-12T09:31:04;96864.38;;;18.42;81.66
57628;BME280;43451;49.060;10.616;2022-09-12T09:33:33;96861.63;;;18.29;85.08
57628;BME280;43451;49.060;10.616;2022-09-12T09:36:15;96864.25;;;18.20;90.56
57628;BME280;43451;49.060;10.616;2022-09-12T09:38:56;96856.13;;;18.42;79.75
57628;BME280;43451;49.060;10.616;2022-09-12T09:44:00;96844.34;;;18.41;88.96
57628;BME280;43451;49.060;10.616;2022-09-12T09:46:27;96851.06;;;18.53;83.04
57628;BME280;43451;49.060;10.616;2022-09-12T09:48:54;96847.88;;;18.54;86.35
57628;BME280;43451;49.060;10.616;2022-09-12T09:51:32;96853.47;;;18.64;79.85
57628;BME280;43451;49.060;10.616;2022-09-12T09:56:42;96846.34;;;18.79;81.89
57628;BME280;43451;49.060;10.616;2022-09-12T09:59:15;96844.78;;;18.91;78.59
57628;BME280;43451;49.060;10.616;2022-09-12T10:01:54;96846.19;;;18.95;78.48
57628;BME280;43451;49.060;10.616;2022-09-12T10:04:25;96838.53;;;18.90;83.54
57628;BME280;43451;49.060;10.616;2022-09-12T10:06:55;96853.06;;;18.78;82.23
57628;BME280;43451;49.060;10.616;2022-09-12T10:09:27;96842.81;;;18.91;84.28
57628;BME280;43451;49.060;10.616;2022-09-12T10:11:54;96848.56;;;18.84;84.57
57628;BME280;43451;49.060;10.616;2022-09-12T10:14:37;96840.56;;;18.99;81.65
57628;BME280;43451;49.060;10.616;2022-09-12T10:17:27;96831.44;;;18.89;83.18
57628;BME280;43451;49.060;10.616;2022-09-12T10:19:53;96835.66;;;18.94;82.96
57628;BME280;43451;49.060;10.616;2022-09-12T10:22:22;96834.31;;;18.98;75.40
57628;BME280;43451;49.060;10.616;2022-09-12T10:24:58;96834.84;;;19.28;73.06
57628;BME280;43451;49.060;10.616;2022-09-12T10:27:27;96831.53;;;19.33;74.64
57628;BME280;43451;49.060;10.616;2022-09-12T10:30:15;96833.34;;;19.27;76.83
57628;BME280;43451;49.060;10.616;2022-09-12T10:32:44;96829.75;;;19.39;78.38
57628;BME280;43451;49.060;10.616;2022-09-12T10:35:22;96836.59;;;19.13;73.92
57628;BME280;43451;49.060;10.616;2022-09-12T10:37:57;96836.72;;;18.96;75.81
57628;BME280;43451;49.060;10.616;2022-09-12T10:40:29;96837.81;;;18.99;78.51
57628;BME280;43451;49.060;10.616;2022-09-12T10:43:00;96826.78;;;19.12;81.35
57628;BME280;43451;49.060;10.616;2022-09-12T10:45:33;96835.75;;;19.25;82.38
57628;BME280;43451;49.060;10.616;2022-09-12T10:50:46;96834.00;;;19.53;80.79
57628;BME280;43451;49.060;10.616;2022-09-12T10:53:31;96842.22;;;19.88;74.95
57628;BME280;43451;49.060;10.616;2022-09-12T10:56:19;96830.69;;;19.80;75.76
57628;BME280;43451;49.060;10.616;2022-09-12T11:04:32;96823.00;;;19.75;75.60
57628;BME280;43451;49.060;10.616;2022-09-12T11:09:43;96821.19;;;19.81;77.22
57628;BME280;43451;49.060;10.616;2022-09-12T11:20:19;96819.13;;;19.73;73.28
57628;BME280;43451;49.060;10.616;2022-09-12T11:28:33;96812.53;;;20.23;70.09
57628;BME280;43451;49.060;10.616;2022-09-12T11:33:45;96806.84;;;20.58;71.82
57628;BME280;43451;49.060;10.616;2022-09-12T11:36:49;96803.03;;;20.64;71.89
57628;BME280;43451;49.060;10.616;2022-09-12T11:39:23;96799.63;;;20.51;73.79
57628;BME280;43451;49.060;10.616;2022-09-12T11:41:56;96797.72;;;20.39;73.93
57628;BME280;43451;49.060;10.616;2022-09-12T11:44:35;96801.22;;;20.61;72.77
57628;BME280;43451;49.060;10.616;2022-09-12T11:47:11;96789.13;;;20.86;64.98
57628;BME280;43451;49.060;10.616;2022-09-12T11:49:41;96796.19;;;20.97;68.43
57628;BME280;43451;49.060;10.616;2022-09-12T11:52:24;96786.69;;;20.98;66.30
57628;BME280;43451;49.060;10.616;2022-09-12T12:00:18;96781.44;;;20.72;71.63
57628;BME280;43451;49.060;10.616;2022-09-12T12:05:54;96782.53;;;21.02;66.56
57628;BME280;43451;49.060;10.616;2022-09-12T12:08:23;96773.47;;;21.20;66.29
57628;BME280;43451;49.060;10.616;2022-09-12T12:11:00;96765.38;;;21.35;70.78
57628;BME280;43451;49.060;10.616;2022-09-12T12:16:36;96772.00;;;21.38;66.31
57628;BME280;43451;49.060;10.616;2022-09-12T12:21:43;96766.44;;;21.28;74.74
57628;BME280;43451;49.060;10.616;2022-09-12T12:34:37;96751.56;;;21.44;65.53
57628;BME280;43451;49.060;10.616;2022-09-12T12:47:32;96743.19;;;21.63;68.40
57628;BME280;43451;49.060;10.616;2022-09-12T12:52:59;96731.09;;;21.60;67.72
57628;BME280;43451;49.060;10.616;2022-09-12T12:58:36;96722.19;;;21.47;64.05
57628;BME280;43451;49.060;10.616;2022-09-12T13:01:18;96717.53;;;21.71;71.50
57628;BME280;43451;49.060;10.616;2022-09-12T13:03:58;96720.53;;;21.92;71.49
57628;BME280;43451;49.060;10.616;2022-09-12T13:09:03;96726.00;;;22.01;67.44
57628;BME280;43451;49.060;10.616;2022-09-12T13:11:40;96719.75;;;21.91;64.31
57628;BME280;43451;49.060;10.616;2022-09-12T13:14:30;96715.16;;;21.88;64.66
57628;BME280;43451;49.060;10.616;2022-09-12T13:16:54;96715.97;;;21.79;64.72
57628;BME280;43451;49.060;10.616;2022-09-12T13:19:34;96717.66;;;21.77;68.96
57628;BME280;43451;49.060;10.616;2022-09-12T13:22:08;96715.59;;;21.96;70.87
57628;BME280;43451;49.060;10.616;2022-09-12T13:24:42;96714.13;;;22.19;62.86
57628;BME280;43451;49.060;10.616;2022-09-12T13:27:19;96721.69;;;22.09;58.91
57628;BME280;43451;49.060;10.616;2022-09-12T13:29:45;96716.50;;;22.02;55.86
57628;BME280;43451;49.060;10.616;2022-09-12T13:32:11;96711.59;;;21.97;59.09
57628;BME280;43451;49.060;10.616;2022-09-12T13:39:48;96707.75;;;22.37;52.05
57628;BME280;43451;49.060;10.616;2022-09-12T13:45:11;96696.97;;;22.06;56.73
57628;BME280;43451;49.060;10.616;2022-09-12T13:47:44;96708.81;;;21.97;58.48
57628;BME280;43451;49.060;10.616;2022-09-12T13:50:23;96696.00;;;22.18;57.43
57628;BME280;43451;49.060;10.616;2022-09-12T13:53:12;96691.38;;;22.15;64.59
57628;BME280;43451;49.060;10.616;2022-09-12T13:55:39;96698.25;;;22.29;59.72
57628;BME280;43451;49.060;10.616;2022-09-12T13:58:15;96685.94;;;22.30;64.46
57628;BME280;43451;49.060;10.616;2022-09-12T14:00:42;96689.34;;;22.24;60.59
57628;BME280;43451;49.060;10.616;2022-09-12T14:03:24;96688.63;;;22.39;54.34
57628;BME280;43451;49.060;10.616;2022-09-12T14:06:10;96685.69;;;22.18;48.59
57628;BME280;43451;49.060;10.616;2022-09-12T14:08:40;96680.75;;;22.46;50.24
57628;BME280;43451;49.060;10.616;2022-09-12T14:11:09;96678.22;;;22.58;49.84
57628;BME280;43451;49.060;10.616;2022-09-12T14:13:35;96680.47;;;22.20;48.66
57628;BME280;43451;49.060;10.616;2022-09-12T14:16:03;96679.94;;;21.98;55.49
57628;BME280;43451;49.060;10.616;2022-09-12T14:18:33;96678.34;;;22.06;56.85
57628;BME280;43451;49.060;10.616;2022-09-12T14:21:08;96671.16;;;21.99;55.54
57628;BME280;43451;49.060;10.616;2022-09-12T14:23:40;96671.56;;;22.16;53.88
57628;BME280;43451;49.060;10.616;2022-09-12T14:26:09;96667.50;;;22.51;47.90
57628;BME280;43451;49.060;10.616;2022-09-12T14:28:39;96662.72;;;22.51;51.21
57628;BME280;43451;49.060;10.616;2022-09-12T14:31:36;96657.41;;;22.62;47.66
57628;BME280;43451;49.060;10.616;2022-09-12T14:36:50;96655.09;;;22.46;51.11
57628;BME280;43451;49.060;10.616;2022-09-12T14:39:39;96648.28;;;22.71;47.16
57628;BME280;43451;49.060;10.616;2022-09-12T14:42:17;96654.06;;;22.58;48.31
57628;BME280;43451;49.060;10.616;2022-09-12T14:45:24;96641.94;;;22.70;45.45
57628;BME280;43451;49.060;10.616;2022-09-12T14:47:52;96648.84;;;22.75;45.91
57628;BME280;43451;49.060;10.616;2022-09-12T14:50:21;96654.41;;;22.51;47.60
57628;BME280;43451;49.060;10.616;2022-09-12T14:53:02;96642.69;;;22.56;50.29
57628;BME280;43451;49.060;10.616;2022-09-12T14:55:30;96633.50;;;22.50;51.54
57628;BME280;43451;49.060;10.616;2022-09-12T15:05:56;96641.31;;;22.37;50.23
57628;BME280;43451;49.060;10.616;2022-09-12T15:08:23;96640.28;;;22.49;46.75
57628;BME280;43451;49.060;10.616;2022-09-12T15:10:49;96641.66;;;22.30;50.09
57628;BME280;43451;49.060;10.616;2022-09-12T15:13:26;96629.41;;;22.21;52.26
57628;BME280;43451;49.060;10.616;2022-09-12T15:15:57;96634.03;;;22.15;50.87
57628;BME280;43451;49.060;10.616;2022-09-12T15:18:25;96633.38;;;21.96;57.07
57628;BME280;43451;49.060;10.616;2022-09-12T15:21:00;96629.97;;;22.01;51.90
57628;BME280;43451;49.060;10.616;2022-09-12T15:23:47;96624.38;;;22.11;50.92
57628;BME280;43451;49.060;10.616;2022-09-12T15:26:18;96625.19;;;22.02;48.12
57628;BME280;43451;49.060;10.616;2022-09-12T15:28:44;96630.19;;;22.13;46.90
57628;BME280;43451;49.060;10.616;2022-09-12T15:31:27;96627.66;;;22.00;47.99
57628;BME280;43451;49.060;10.616;2022-09-12T15:33:53;96617.88;;;21.90;52.69
57628;BME280;43451;49.060;10.616;2022-09-12T15:36:21;96622.44;;;22.02;46.93
57628;BME280;43451;49.060;10.616;2022-09-12T15:38:47;96621.66;;;21.68;47.72
57628;BME280;43451;49.060;10.616;2022-09-12T15:41:16;96627.19;;;21.68;47.87